sensor_id;sensor_type;location;lat;lon;timestamp;temperature;humidity
3380;DHT22;1703;51.964;7.642;2022-08-06T00:01:50;17.10;99.90
3380;DHT22;1703;51.964;7.642;2022-08-06T00:04:18;17.00;99.90
3380;DHT22;1703;51.964;7.642;2022-08-06T00:06:45;16.90;99.90
3380;DHT22;1703;51.964;7.642;2022-08-06T00:09:12;17.00;99.90
3380;DHT22;1703;51.964;7.642;2022-08-06T00:11:39;16.90;99.90
3380;DHT22;1703;51.964;7.642;2022-08-06T00:14:06;16.80;99.90
3380;DHT22;1703;51.964;7.642;2022-08-06T00:16:34;16.90;99.90
3380;DHT22;1703;51.964;7.642;2022-08-06T00:19:02;16.80;99.90
3380;DHT22;1703;51.964;7.642;2022-08-06T00:21:29;16.80;99.90
3380;DHT22;1703;51.964;7.642;2022-08-06T00:23:56;16.80;99.90
3380;DHT22;1703;51.964;7.642;2022-08-06T00:26:23;16.70;99.90
3380;DHT22;1703;51.964;7.642;2022-08-06T00:28:49;16.80;99.90
3380;DHT22;1703;51.964;7.642;2022-08-06T00:31:16;16.70;99.90
3380;DHT22;1703;51.964;7.642;2022-08-06T00:33:43;16.70;99.90
3380;DHT22;1703;51.964;7.642;2022-08-06T00:36:11;16.60;99.90
3380;DHT22;1703;51.964;7.642;2022-08-06T00:38:38;16.60;99.90
3380;DHT22;1703;51.964;7.642;2022-08-06T00:41:05;16.60;99.90
3380;DHT22;1703;51.964;7.642;2022-08-06T00:43:32;16.60;99.90
3380;DHT22;1703;51.964;7.642;2022-08-06T00:45:58;16.60;99.90
3380;DHT22;1703;51.964;7.642;2022-08-06T00:48:25;16.50;99.90
3380;DHT22;1703;51.964;7.642;2022-08-06T00:50:52;16.50;99.90
3380;DHT22;1703;51.964;7.642;2022-08-06T00:53:20;16.40;99.90
3380;DHT22;1703;51.964;7.642;2022-08-06T00:55:47;16.50;99.90
3380;DHT22;1703;51.964;7.642;2022-08-06T00:58:14;16.50;99.90
3380;DHT22;1703;51.964;7.642;2022-08-06T01:00:40;16.40;99.90
3380;DHT22;1703;51.964;7.642;2022-08-06T01:03:07;16.40;99.90
3380;DHT22;1703;51.964;7.642;2022-08-06T01:05:35;16.40;99.90
3380;DHT22;1703;51.964;7.642;2022-08-06T01:08:02;16.30;99.90
3380;DHT22;1703;51.964;7.642;2022-08-06T01:10:30;16.30;99.90
3380;DHT22;1703;51.964;7.642;2022-08-06T01:12:57;16.30;99.90
3380;DHT22;1703;51.964;7.642;2022-08-06T01:15:24;16.30;99.90
3380;DHT22;1703;51.964;7.642;2022-08-06T01:17:57;16.30;99.90
3380;DHT22;1703;51.964;7.642;2022-08-06T01:20:39;16.30;99.90
3380;DHT22;1703;51.964;7.642;2022-08-06T01:23:15;16.30;99.90
3380;DHT22;1703;51.964;7.642;2022-08-06T01:26:09;16.30;99.90
3380;DHT22;1703;51.964;7.642;2022-08-06T01:28:45;16.20;99.90
3380;DHT22;1703;51.964;7.642;2022-08-06T01:31:19;16.20;99.90
3380;DHT22;1703;51.964;7.642;2022-08-06T01:33:51;16.20;99.90
3380;DHT22;1703;51.964;7.642;2022-08-06T01:36:22;16.20;99.90
3380;DHT22;1703;51.964;7.642;2022-08-06T01:38:52;16.20;99.90
3380;DHT22;1703;51.964;7.642;2022-08-06T01:41:22;16.10;99.90
3380;DHT22;1703;51.964;7.642;2022-08-06T01:44:21;16.10;99.90
3380;DHT22;1703;51.964;7.642;2022-08-06T01:46:51;16.10;99.90
3380;DHT22;1703;51.964;7.642;2022-08-06T01:49:22;16.00;99.90
3380;DHT22;1703;51.964;7.642;2022-08-06T01:51:51;16.20;99.90
3380;DHT22;1703;51.964;7.642;2022-08-06T01:54:19;16.20;99.90
3380;DHT22;1703;51.964;7.642;2022-08-06T01:56:50;16.30;99.90
3380;DHT22;1703;51.964;7.642;2022-08-06T01:59:21;16.20;99.90
3380;DHT22;1703;51.964;7.642;2022-08-06T02:01:53;16.10;99.90
3380;DHT22;1703;51.964;7.642;2022-08-06T02:04:24;16.10;99.90
3380;DHT22;1703;51.964;7.642;2022-08-06T02:06:53;16.10;99.90
3380;DHT22;1703;51.964;7.642;2022-08-06T02:09:23;16.10;99.90
3380;DHT22;1703;51.964;7.642;2022-08-06T02:11:54;16.10;99.90
3380;DHT22;1703;51.964;7.642;2022-08-06T02:14:24;16.00;99.90
3380;DHT22;1703;51.964;7.642;2022-08-06T02:16:55;15.90;99.90
3380;DHT22;1703;51.964;7.642;2022-08-06T02:19:25;15.90;99.90
3380;DHT22;1703;51.964;7.642;2022-08-06T02:21:53;15.90;99.90
3380;DHT22;1703;51.964;7.642;2022-08-06T02:24:22;15.90;99.90
3380;DHT22;1703;51.964;7.642;2022-08-06T02:26:51;15.80;99.90
3380;DHT22;1703;51.964;7.642;2022-08-06T02:29:20;15.80;99.90
3380;DHT22;1703;51.964;7.642;2022-08-06T02:31:49;15.70;99.90
3380;DHT22;1703;51.964;7.642;2022-08-06T02:34:17;15.70;99.90
3380;DHT22;1703;51.964;7.642;2022-08-06T02:36:47;15.70;99.90
3380;DHT22;1703;51.964;7.642;2022-08-06T02:39:22;15.70;99.90
3380;DHT22;1703;51.964;7.642;2022-08-06T02:41:59;15.60;99.90
3380;DHT22;1703;51.964;7.642;2022-08-06T02:44:36;15.60;99.90
3380;DHT22;1703;51.964;7.642;2022-08-06T02:47:09;15.60;99.90
3380;DHT22;1703;51.964;7.642;2022-08-06T02:49:41;15.60;99.90
3380;DHT22;1703;51.964;7.642;2022-08-06T02:52:15;15.60;99.90
3380;DHT22;1703;51.964;7.642;2022-08-06T02:54:46;15.50;99.90
3380;DHT22;1703;51.964;7.642;2022-08-06T02:57:34;15.60;99.90
3380;DHT22;1703;51.964;7.642;2022-08-06T03:00:05;15.60;99.90
3380;DHT22;1703;51.964;7.642;2022-08-06T03:02:36;15.70;99.90
3380;DHT22;1703;51.964;7.642;2022-08-06T03:05:07;15.60;99.90
3380;DHT22;1703;51.964;7.642;2022-08-06T03:07:37;15.60;99.90
3380;DHT22;1703;51.964;7.642;2022-08-06T03:10:07;15.60;99.90
3380;DHT22;1703;51.964;7.642;2022-08-06T03:12:35;15.70;99.90
3380;DHT22;1703;51.964;7.642;2022-08-06T03:15:04;15.60;99.90
3380;DHT22;1703;51.964;7.642;2022-08-06T03:17:34;15.60;99.90
3380;DHT22;1703;51.964;7.642;2022-08-06T03:20:03;15.60;99.90
3380;DHT22;1703;51.964;7.642;2022-08-06T03:22:31;15.40;99.90
3380;DHT22;1703;51.964;7.642;2022-08-06T03:25:00;15.40;99.90
3380;DHT22;1703;51.964;7.642;2022-08-06T03:27:28;15.30;99.90
3380;DHT22;1703;51.964;7.642;2022-08-06T03:29:56;15.30;99.90
3380;DHT22;1703;51.964;7.642;2022-08-06T03:32:23;15.20;99.90
3380;DHT22;1703;51.964;7.642;2022-08-06T03:34:52;15.20;99.90
3380;DHT22;1703;51.964;7.642;2022-08-06T03:37:20;15.20;99.90
3380;DHT22;1703;51.964;7.642;2022-08-06T03:39:48;15.30;99.90
3380;DHT22;1703;51.964;7.642;2022-08-06T03:42:16;15.30;99.90
3380;DHT22;1703;51.964;7.642;2022-08-06T03:44:43;15.30;99.90
3380;DHT22;1703;51.964;7.642;2022-08-06T03:47:18;15.20;99.90
3380;DHT22;1703;51.964;7.642;2022-08-06T03:50:04;15.30;99.90
3380;DHT22;1703;51.964;7.642;2022-08-06T03:52:36;15.20;99.90
3380;DHT22;1703;51.964;7.642;2022-08-06T03:55:06;15.20;99.90
3380;DHT22;1703;51.964;7.642;2022-08-06T03:57:39;15.20;99.90
3380;DHT22;1703;51.964;7.642;2022-08-06T04:00:09;15.20;99.90
3380;DHT22;1703;51.964;7.642;2022-08-06T04:02:44;15.20;99.90
3380;DHT22;1703;51.964;7.642;2022-08-06T04:05:16;15.10;99.90
3380;DHT22;1703;51.964;7.642;2022-08-06T04:07:44;15.20;99.90
3380;DHT22;1703;51.964;7.642;2022-08-06T04:10:14;15.10;99.90
3380;DHT22;1703;51.964;7.642;2022-08-06T04:12:42;15.20;99.90
3380;DHT22;1703;51.964;7.642;2022-08-06T04:15:10;15.10;99.90
3380;DHT22;1703;51.964;7.642;2022-08-06T04:17:39;15.10;99.90
3380;DHT22;1703;51.964;7.642;2022-08-06T04:20:08;15.20;99.90
3380;DHT22;1703;51.964;7.642;2022-08-06T04:22:38;15.10;99.90
3380;DHT22;1703;51.964;7.642;2022-08-06T04:25:05;15.10;99.90
3380;DHT22;1703;51.964;7.642;2022-08-06T04:27:34;15.00;99.90
3380;DHT22;1703;51.964;7.642;2022-08-06T04:30:02;15.00;99.90
3380;DHT22;1703;51.964;7.642;2022-08-06T04:32:29;15.00;99.90
3380;DHT22;1703;51.964;7.642;2022-08-06T04:34:58;15.10;99.90
3380;DHT22;1703;51.964;7.642;2022-08-06T04:37:25;15.10;99.90
3380;DHT22;1703;51.964;7.642;2022-08-06T04:39:54;15.20;99.90
3380;DHT22;1703;51.964;7.642;2022-08-06T04:42:21;15.10;99.90
3380;DHT22;1703;51.964;7.642;2022-08-06T04:44:49;15.10;99.90
3380;DHT22;1703;51.964;7.642;2022-08-06T04:47:16;15.10;99.90
3380;DHT22;1703;51.964;7.642;2022-08-06T04:49:43;15.10;99.90
3380;DHT22;1703;51.964;7.642;2022-08-06T04:52:20;15.10;99.90
3380;DHT22;1703;51.964;7.642;2022-08-06T04:54:47;15.20;99.90
3380;DHT22;1703;51.964;7.642;2022-08-06T04:57:15;15.10;99.90
3380;DHT22;1703;51.964;7.642;2022-08-06T04:59:42;15.10;99.90
3380;DHT22;1703;51.964;7.642;2022-08-06T05:02:09;15.20;99.90
3380;DHT22;1703;51.964;7.642;2022-08-06T05:04:36;15.10;99.90
3380;DHT22;1703;51.964;7.642;2022-08-06T05:07:09;15.10;99.90
3380;DHT22;1703;51.964;7.642;2022-08-06T05:09:36;15.20;99.90
3380;DHT22;1703;51.964;7.642;2022-08-06T05:12:05;15.20;99.90
3380;DHT22;1703;51.964;7.642;2022-08-06T05:14:39;15.30;99.90
3380;DHT22;1703;51.964;7.642;2022-08-06T05:17:10;15.20;99.90
3380;DHT22;1703;51.964;7.642;2022-08-06T05:19:42;15.30;99.90
3380;DHT22;1703;51.964;7.642;2022-08-06T05:22:11;15.30;99.90
3380;DHT22;1703;51.964;7.642;2022-08-06T05:24:40;15.30;99.90
3380;DHT22;1703;51.964;7.642;2022-08-06T05:27:09;15.40;99.90
3380;DHT22;1703;51.964;7.642;2022-08-06T05:29:39;15.40;99.90
3380;DHT22;1703;51.964;7.642;2022-08-06T05:32:06;15.50;99.90
3380;DHT22;1703;51.964;7.642;2022-08-06T05:34:33;15.60;99.90
3380;DHT22;1703;51.964;7.642;2022-08-06T05:37:00;15.80;99.90
3380;DHT22;1703;51.964;7.642;2022-08-06T05:39:27;16.00;99.90
3380;DHT22;1703;51.964;7.642;2022-08-06T05:41:54;16.00;99.90
3380;DHT22;1703;51.964;7.642;2022-08-06T05:44:20;16.00;99.90
3380;DHT22;1703;51.964;7.642;2022-08-06T05:46:51;16.10;99.90
3380;DHT22;1703;51.964;7.642;2022-08-06T05:49:22;16.10;99.90
3380;DHT22;1703;51.964;7.642;2022-08-06T05:51:53;16.10;99.90
3380;DHT22;1703;51.964;7.642;2022-08-06T05:54:26;16.00;99.90
3380;DHT22;1703;51.964;7.642;2022-08-06T05:57:00;16.00;99.90
3380;DHT22;1703;51.964;7.642;2022-08-06T05:59:30;16.00;99.90
3380;DHT22;1703;51.964;7.642;2022-08-06T06:02:02;16.10;99.90
3380;DHT22;1703;51.964;7.642;2022-08-06T06:04:31;16.10;99.90
3380;DHT22;1703;51.964;7.642;2022-08-06T06:06:58;16.10;99.90
3380;DHT22;1703;51.964;7.642;2022-08-06T06:09:26;16.30;99.90
3380;DHT22;1703;51.964;7.642;2022-08-06T06:11:53;16.30;99.90
3380;DHT22;1703;51.964;7.642;2022-08-06T06:14:40;16.30;99.90
3380;DHT22;1703;51.964;7.642;2022-08-06T06:17:30;16.30;99.90
3380;DHT22;1703;51.964;7.642;2022-08-06T06:20:10;16.50;99.90
3380;DHT22;1703;51.964;7.642;2022-08-06T06:22:44;16.60;99.90
3380;DHT22;1703;51.964;7.642;2022-08-06T06:25:17;16.70;99.90
3380;DHT22;1703;51.964;7.642;2022-08-06T06:27:49;16.80;99.90
3380;DHT22;1703;51.964;7.642;2022-08-06T06:30:22;16.80;99.90
3380;DHT22;1703;51.964;7.642;2022-08-06T06:32:56;16.80;99.90
3380;DHT22;1703;51.964;7.642;2022-08-06T06:35:29;16.80;99.90
3380;DHT22;1703;51.964;7.642;2022-08-06T06:38:07;16.80;99.90
3380;DHT22;1703;51.964;7.642;2022-08-06T06:40:45;16.90;99.90
3380;DHT22;1703;51.964;7.642;2022-08-06T06:43:17;17.00;99.90
3380;DHT22;1703;51.964;7.642;2022-08-06T06:45:51;17.00;99.90
3380;DHT22;1703;51.964;7.642;2022-08-06T06:48:26;17.20;99.90
3380;DHT22;1703;51.964;7.642;2022-08-06T06:51:01;17.30;99.90
3380;DHT22;1703;51.964;7.642;2022-08-06T06:53:31;17.40;99.90
3380;DHT22;1703;51.964;7.642;2022-08-06T06:56:00;17.40;99.90
3380;DHT22;1703;51.964;7.642;2022-08-06T06:58:33;17.50;99.90
3380;DHT22;1703;51.964;7.642;2022-08-06T07:01:03;17.60;99.90
3380;DHT22;1703;51.964;7.642;2022-08-06T07:03:33;17.60;99.90
3380;DHT22;1703;51.964;7.642;2022-08-06T07:06:02;17.70;99.90
3380;DHT22;1703;51.964;7.642;2022-08-06T07:08:32;17.90;99.90
3380;DHT22;1703;51.964;7.642;2022-08-06T07:11:01;17.90;99.90
3380;DHT22;1703;51.964;7.642;2022-08-06T07:13:29;18.00;99.90
3380;DHT22;1703;51.964;7.642;2022-08-06T07:15:56;18.10;99.90
3380;DHT22;1703;51.964;7.642;2022-08-06T07:18:24;18.00;99.90
3380;DHT22;1703;51.964;7.642;2022-08-06T07:20:55;18.00;99.90
3380;DHT22;1703;51.964;7.642;2022-08-06T07:23:23;18.00;99.90
3380;DHT22;1703;51.964;7.642;2022-08-06T07:25:52;18.10;99.90
3380;DHT22;1703;51.964;7.642;2022-08-06T07:28:22;18.10;99.90
3380;DHT22;1703;51.964;7.642;2022-08-06T07:30:51;18.20;99.90
3380;DHT22;1703;51.964;7.642;2022-08-06T07:33:18;18.20;99.90
3380;DHT22;1703;51.964;7.642;2022-08-06T07:35:47;18.30;99.90
3380;DHT22;1703;51.964;7.642;2022-08-06T07:38:18;18.20;99.90
3380;DHT22;1703;51.964;7.642;2022-08-06T07:40:50;18.30;99.90
3380;DHT22;1703;51.964;7.642;2022-08-06T07:43:21;18.30;99.90
3380;DHT22;1703;51.964;7.642;2022-08-06T07:45:49;18.30;99.90
3380;DHT22;1703;51.964;7.642;2022-08-06T07:48:16;18.50;99.90
3380;DHT22;1703;51.964;7.642;2022-08-06T07:50:49;18.60;99.90
3380;DHT22;1703;51.964;7.642;2022-08-06T07:53:18;18.70;99.90
3380;DHT22;1703;51.964;7.642;2022-08-06T07:55:46;18.70;99.90
3380;DHT22;1703;51.964;7.642;2022-08-06T07:58:14;18.80;99.90
3380;DHT22;1703;51.964;7.642;2022-08-06T08:00:42;18.80;99.90
3380;DHT22;1703;51.964;7.642;2022-08-06T08:03:10;18.70;99.90
3380;DHT22;1703;51.964;7.642;2022-08-06T08:05:55;18.70;99.90
3380;DHT22;1703;51.964;7.642;2022-08-06T08:08:41;18.80;99.90
3380;DHT22;1703;51.964;7.642;2022-08-06T08:11:08;18.80;99.90
3380;DHT22;1703;51.964;7.642;2022-08-06T08:13:36;18.80;99.90
3380;DHT22;1703;51.964;7.642;2022-08-06T08:16:04;18.80;99.90
3380;DHT22;1703;51.964;7.642;2022-08-06T08:18:35;18.90;99.90
3380;DHT22;1703;51.964;7.642;2022-08-06T08:21:02;18.90;99.90
3380;DHT22;1703;51.964;7.642;2022-08-06T08:23:30;19.00;99.90
3380;DHT22;1703;51.964;7.642;2022-08-06T08:26:00;19.10;99.90
3380;DHT22;1703;51.964;7.642;2022-08-06T08:28:28;19.10;99.90
3380;DHT22;1703;51.964;7.642;2022-08-06T08:30:56;19.00;99.90
3380;DHT22;1703;51.964;7.642;2022-08-06T08:33:24;19.30;99.90
3380;DHT22;1703;51.964;7.642;2022-08-06T08:35:51;19.30;99.90
3380;DHT22;1703;51.964;7.642;2022-08-06T08:38:18;19.40;99.90
3380;DHT22;1703;51.964;7.642;2022-08-06T08:40:47;19.60;99.90
3380;DHT22;1703;51.964;7.642;2022-08-06T08:43:25;19.60;99.90
3380;DHT22;1703;51.964;7.642;2022-08-06T08:45:52;19.40;99.90
3380;DHT22;1703;51.964;7.642;2022-08-06T08:48:24;19.40;99.90
3380;DHT22;1703;51.964;7.642;2022-08-06T08:50:55;19.40;99.90
3380;DHT22;1703;51.964;7.642;2022-08-06T08:53:31;19.50;99.90
3380;DHT22;1703;51.964;7.642;2022-08-06T08:56:01;19.60;99.90
3380;DHT22;1703;51.964;7.642;2022-08-06T08:58:30;19.40;99.90
3380;DHT22;1703;51.964;7.642;2022-08-06T09:01:02;19.30;99.90
3380;DHT22;1703;51.964;7.642;2022-08-06T09:03:33;19.50;99.90
3380;DHT22;1703;51.964;7.642;2022-08-06T09:06:01;19.50;99.90
3380;DHT22;1703;51.964;7.642;2022-08-06T09:08:29;19.60;99.90
3380;DHT22;1703;51.964;7.642;2022-08-06T09:10:56;19.80;99.90
3380;DHT22;1703;51.964;7.642;2022-08-06T09:13:24;19.90;99.90
3380;DHT22;1703;51.964;7.642;2022-08-06T09:15:52;19.90;99.90
3380;DHT22;1703;51.964;7.642;2022-08-06T09:18:19;20.00;99.90
3380;DHT22;1703;51.964;7.642;2022-08-06T09:20:49;20.30;99.90
3380;DHT22;1703;51.964;7.642;2022-08-06T09:23:16;20.20;99.90
3380;DHT22;1703;51.964;7.642;2022-08-06T09:25:45;20.30;99.90
3380;DHT22;1703;51.964;7.642;2022-08-06T09:28:30;20.40;99.90
3380;DHT22;1703;51.964;7.642;2022-08-06T09:31:01;20.40;99.90
3380;DHT22;1703;51.964;7.642;2022-08-06T09:33:30;20.60;99.90
3380;DHT22;1703;51.964;7.642;2022-08-06T09:35:58;20.70;99.90
3380;DHT22;1703;51.964;7.642;2022-08-06T09:38:26;20.80;99.90
3380;DHT22;1703;51.964;7.642;2022-08-06T09:41:04;20.80;99.90
3380;DHT22;1703;51.964;7.642;2022-08-06T09:43:31;20.80;99.90
3380;DHT22;1703;51.964;7.642;2022-08-06T09:46:00;20.80;99.90
3380;DHT22;1703;51.964;7.642;2022-08-06T09:48:27;20.80;99.90
3380;DHT22;1703;51.964;7.642;2022-08-06T09:50:53;20.90;99.90
3380;DHT22;1703;51.964;7.642;2022-08-06T09:53:20;20.90;99.90
3380;DHT22;1703;51.964;7.642;2022-08-06T09:55:49;20.60;99.90
3380;DHT22;1703;51.964;7.642;2022-08-06T09:58:26;20.70;99.90
3380;DHT22;1703;51.964;7.642;2022-08-06T10:00:54;20.90;99.90
3380;DHT22;1703;51.964;7.642;2022-08-06T10:03:22;20.90;99.90
3380;DHT22;1703;51.964;7.642;2022-08-06T10:06:03;20.90;99.90
3380;DHT22;1703;51.964;7.642;2022-08-06T10:08:30;20.80;99.90
3380;DHT22;1703;51.964;7.642;2022-08-06T10:10:57;20.90;99.90
3380;DHT22;1703;51.964;7.642;2022-08-06T10:13:29;21.20;99.90
3380;DHT22;1703;51.964;7.642;2022-08-06T10:15:59;21.30;99.90
3380;DHT22;1703;51.964;7.642;2022-08-06T10:18:36;21.50;99.90
3380;DHT22;1703;51.964;7.642;2022-08-06T10:21:05;21.40;99.90
3380;DHT22;1703;51.964;7.642;2022-08-06T10:23:36;21.60;99.90
3380;DHT22;1703;51.964;7.642;2022-08-06T10:26:07;21.70;99.90
3380;DHT22;1703;51.964;7.642;2022-08-06T10:28:36;21.60;99.90
3380;DHT22;1703;51.964;7.642;2022-08-06T10:31:06;21.60;99.90
3380;DHT22;1703;51.964;7.642;2022-08-06T10:33:39;21.60;99.90
3380;DHT22;1703;51.964;7.642;2022-08-06T10:36:10;21.50;99.90
3380;DHT22;1703;51.964;7.642;2022-08-06T10:38:42;21.70;99.90
3380;DHT22;1703;51.964;7.642;2022-08-06T10:41:11;21.70;99.90
3380;DHT22;1703;51.964;7.642;2022-08-06T10:43:39;21.70;99.90
3380;DHT22;1703;51.964;7.642;2022-08-06T10:46:07;21.80;99.90
3380;DHT22;1703;51.964;7.642;2022-08-06T10:48:37;21.60;99.90
3380;DHT22;1703;51.964;7.642;2022-08-06T10:51:07;21.70;99.90
3380;DHT22;1703;51.964;7.642;2022-08-06T10:53:36;21.80;99.90
3380;DHT22;1703;51.964;7.642;2022-08-06T10:56:05;21.80;99.90
3380;DHT22;1703;51.964;7.642;2022-08-06T10:58:33;22.10;99.90
3380;DHT22;1703;51.964;7.642;2022-08-06T11:01:05;22.30;99.90
3380;DHT22;1703;51.964;7.642;2022-08-06T11:03:41;22.30;99.90
3380;DHT22;1703;51.964;7.642;2022-08-06T11:06:28;22.10;99.90
3380;DHT22;1703;51.964;7.642;2022-08-06T11:09:09;22.10;99.90
3380;DHT22;1703;51.964;7.642;2022-08-06T11:11:48;21.80;99.90
3380;DHT22;1703;51.964;7.642;2022-08-06T11:14:16;21.50;99.90
3380;DHT22;1703;51.964;7.642;2022-08-06T11:16:54;21.20;99.90
3380;DHT22;1703;51.964;7.642;2022-08-06T11:19:37;21.00;99.90
3380;DHT22;1703;51.964;7.642;2022-08-06T11:22:06;21.20;99.90
3380;DHT22;1703;51.964;7.642;2022-08-06T11:24:33;21.20;99.90
3380;DHT22;1703;51.964;7.642;2022-08-06T11:27:49;21.30;99.90
3380;DHT22;1703;51.964;7.642;2022-08-06T11:30:16;21.50;99.90
3380;DHT22;1703;51.964;7.642;2022-08-06T11:32:45;21.80;99.90
3380;DHT22;1703;51.964;7.642;2022-08-06T11:35:45;21.80;99.90
3380;DHT22;1703;51.964;7.642;2022-08-06T11:38:15;22.00;99.90
3380;DHT22;1703;51.964;7.642;2022-08-06T11:40:59;22.00;99.90
3380;DHT22;1703;51.964;7.642;2022-08-06T11:43:45;22.00;99.90
3380;DHT22;1703;51.964;7.642;2022-08-06T11:46:20;22.20;99.90
3380;DHT22;1703;51.964;7.642;2022-08-06T11:49:12;22.20;99.90
3380;DHT22;1703;51.964;7.642;2022-08-06T11:51:42;22.40;99.90
3380;DHT22;1703;51.964;7.642;2022-08-06T11:54:11;22.40;99.90
3380;DHT22;1703;51.964;7.642;2022-08-06T11:57:21;22.40;99.90
3380;DHT22;1703;51.964;7.642;2022-08-06T12:00:13;22.50;99.90
3380;DHT22;1703;51.964;7.642;2022-08-06T12:02:57;22.50;99.90
3380;DHT22;1703;51.964;7.642;2022-08-06T12:05:35;22.50;99.90
3380;DHT22;1703;51.964;7.642;2022-08-06T12:08:25;22.50;99.90
3380;DHT22;1703;51.964;7.642;2022-08-06T12:11:28;22.20;99.90
3380;DHT22;1703;51.964;7.642;2022-08-06T12:13:56;22.10;99.90
3380;DHT22;1703;51.964;7.642;2022-08-06T12:16:28;22.20;99.90
3380;DHT22;1703;51.964;7.642;2022-08-06T12:18:55;22.10;99.90
3380;DHT22;1703;51.964;7.642;2022-08-06T12:21:23;22.20;99.90
3380;DHT22;1703;51.964;7.642;2022-08-06T12:23:52;22.30;99.90
3380;DHT22;1703;51.964;7.642;2022-08-06T12:26:19;22.10;99.90
3380;DHT22;1703;51.964;7.642;2022-08-06T12:28:48;22.00;99.90
3380;DHT22;1703;51.964;7.642;2022-08-06T12:31:28;22.20;99.90
3380;DHT22;1703;51.964;7.642;2022-08-06T12:33:55;22.20;99.90
3380;DHT22;1703;51.964;7.642;2022-08-06T12:36:26;22.30;99.90
3380;DHT22;1703;51.964;7.642;2022-08-06T12:38:57;22.40;99.90
3380;DHT22;1703;51.964;7.642;2022-08-06T12:41:33;22.40;99.90
3380;DHT22;1703;51.964;7.642;2022-08-06T12:44:00;22.50;99.90
3380;DHT22;1703;51.964;7.642;2022-08-06T12:46:27;22.40;99.90
3380;DHT22;1703;51.964;7.642;2022-08-06T12:48:54;22.30;99.90
3380;DHT22;1703;51.964;7.642;2022-08-06T12:51:21;22.30;99.90
3380;DHT22;1703;51.964;7.642;2022-08-06T12:53:50;22.40;99.90
3380;DHT22;1703;51.964;7.642;2022-08-06T12:56:19;22.20;99.90
3380;DHT22;1703;51.964;7.642;2022-08-06T12:58:47;22.40;99.90
3380;DHT22;1703;51.964;7.642;2022-08-06T13:01:17;22.30;99.90
3380;DHT22;1703;51.964;7.642;2022-08-06T13:03:46;22.10;99.90
3380;DHT22;1703;51.964;7.642;2022-08-06T13:06:16;21.90;99.90
3380;DHT22;1703;51.964;7.642;2022-08-06T13:08:45;22.00;99.90
3380;DHT22;1703;51.964;7.642;2022-08-06T13:11:13;22.10;99.90
3380;DHT22;1703;51.964;7.642;2022-08-06T13:13:45;22.00;99.90
3380;DHT22;1703;51.964;7.642;2022-08-06T13:16:14;22.20;99.90
3380;DHT22;1703;51.964;7.642;2022-08-06T13:18:42;22.30;99.90
3380;DHT22;1703;51.964;7.642;2022-08-06T13:21:20;22.50;99.90
3380;DHT22;1703;51.964;7.642;2022-08-06T13:23:49;22.80;99.90
3380;DHT22;1703;51.964;7.642;2022-08-06T13:26:19;22.80;99.90
3380;DHT22;1703;51.964;7.642;2022-08-06T13:29:09;23.00;99.90
3380;DHT22;1703;51.964;7.642;2022-08-06T13:31:37;23.20;99.90
3380;DHT22;1703;51.964;7.642;2022-08-06T13:34:07;23.60;99.90
3380;DHT22;1703;51.964;7.642;2022-08-06T13:36:37;24.40;99.90
3380;DHT22;1703;51.964;7.642;2022-08-06T13:39:23;25.70;99.90
3380;DHT22;1703;51.964;7.642;2022-08-06T13:42:01;27.50;99.90
3380;DHT22;1703;51.964;7.642;2022-08-06T13:44:32;29.30;97.50
3380;DHT22;1703;51.964;7.642;2022-08-06T13:46:59;30.60;94.20
3380;DHT22;1703;51.964;7.642;2022-08-06T13:49:26;32.00;85.80
3380;DHT22;1703;51.964;7.642;2022-08-06T13:51:53;33.00;76.60
3380;DHT22;1703;51.964;7.642;2022-08-06T13:54:21;33.80;70.70
3380;DHT22;1703;51.964;7.642;2022-08-06T13:56:48;34.30;60.50
3380;DHT22;1703;51.964;7.642;2022-08-06T13:59:16;34.60;60.70
3380;DHT22;1703;51.964;7.642;2022-08-06T14:01:45;34.60;58.10
3380;DHT22;1703;51.964;7.642;2022-08-06T14:04:17;33.80;54.80
3380;DHT22;1703;51.964;7.642;2022-08-06T14:06:47;32.60;54.30
3380;DHT22;1703;51.964;7.642;2022-08-06T14:09:17;32.10;56.60
3380;DHT22;1703;51.964;7.642;2022-08-06T14:11:44;31.60;55.30
3380;DHT22;1703;51.964;7.642;2022-08-06T14:14:11;31.30;56.40
3380;DHT22;1703;51.964;7.642;2022-08-06T14:16:37;30.80;58.20
3380;DHT22;1703;51.964;7.642;2022-08-06T14:19:06;30.60;59.70
3380;DHT22;1703;51.964;7.642;2022-08-06T14:21:32;30.30;59.70
3380;DHT22;1703;51.964;7.642;2022-08-06T14:23:59;29.70;60.50
3380;DHT22;1703;51.964;7.642;2022-08-06T14:26:26;29.10;61.20
3380;DHT22;1703;51.964;7.642;2022-08-06T14:28:53;28.10;60.30
3380;DHT22;1703;51.964;7.642;2022-08-06T14:31:20;28.20;65.40
3380;DHT22;1703;51.964;7.642;2022-08-06T14:33:46;28.10;64.00
3380;DHT22;1703;51.964;7.642;2022-08-06T14:36:15;27.80;63.80
3380;DHT22;1703;51.964;7.642;2022-08-06T14:38:42;27.30;64.80
3380;DHT22;1703;51.964;7.642;2022-08-06T14:41:11;26.70;65.70
3380;DHT22;1703;51.964;7.642;2022-08-06T14:43:55;26.30;71.00
3380;DHT22;1703;51.964;7.642;2022-08-06T14:46:40;25.90;69.30
3380;DHT22;1703;51.964;7.642;2022-08-06T14:49:07;25.50;70.60
3380;DHT22;1703;51.964;7.642;2022-08-06T14:51:35;25.10;70.30
3380;DHT22;1703;51.964;7.642;2022-08-06T14:54:03;25.00;73.00
3380;DHT22;1703;51.964;7.642;2022-08-06T14:56:30;24.80;75.00
3380;DHT22;1703;51.964;7.642;2022-08-06T14:58:57;24.70;75.80
3380;DHT22;1703;51.964;7.642;2022-08-06T15:01:24;24.40;74.60
3380;DHT22;1703;51.964;7.642;2022-08-06T15:03:51;24.20;74.90
3380;DHT22;1703;51.964;7.642;2022-08-06T15:06:18;24.00;76.60
3380;DHT22;1703;51.964;7.642;2022-08-06T15:08:46;23.70;77.80
3380;DHT22;1703;51.964;7.642;2022-08-06T15:11:13;23.80;81.60
3380;DHT22;1703;51.964;7.642;2022-08-06T15:13:40;23.90;80.70
3380;DHT22;1703;51.964;7.642;2022-08-06T15:16:07;23.90;78.60
3380;DHT22;1703;51.964;7.642;2022-08-06T15:18:34;24.00;80.00
3380;DHT22;1703;51.964;7.642;2022-08-06T15:21:01;23.90;80.50
3380;DHT22;1703;51.964;7.642;2022-08-06T15:23:28;23.90;83.50
3380;DHT22;1703;51.964;7.642;2022-08-06T15:25:56;24.00;81.20
3380;DHT22;1703;51.964;7.642;2022-08-06T15:28:23;23.70;75.20
3380;DHT22;1703;51.964;7.642;2022-08-06T15:30:49;23.60;75.20
3380;DHT22;1703;51.964;7.642;2022-08-06T15:33:16;23.60;76.60
3380;DHT22;1703;51.964;7.642;2022-08-06T15:35:44;23.50;75.30
3380;DHT22;1703;51.964;7.642;2022-08-06T15:38:11;23.50;78.40
3380;DHT22;1703;51.964;7.642;2022-08-06T15:40:38;23.60;79.30
3380;DHT22;1703;51.964;7.642;2022-08-06T15:43:06;23.60;79.10
3380;DHT22;1703;51.964;7.642;2022-08-06T15:45:33;23.60;80.40
3380;DHT22;1703;51.964;7.642;2022-08-06T15:48:01;23.50;78.80
3380;DHT22;1703;51.964;7.642;2022-08-06T15:50:27;23.40;79.60
3380;DHT22;1703;51.964;7.642;2022-08-06T15:52:54;23.20;81.40
3380;DHT22;1703;51.964;7.642;2022-08-06T15:55:21;23.10;81.80
3380;DHT22;1703;51.964;7.642;2022-08-06T15:57:48;23.00;81.70
3380;DHT22;1703;51.964;7.642;2022-08-06T16:00:17;22.90;83.30
3380;DHT22;1703;51.964;7.642;2022-08-06T16:02:44;22.90;85.60
3380;DHT22;1703;51.964;7.642;2022-08-06T16:05:11;22.90;85.30
3380;DHT22;1703;51.964;7.642;2022-08-06T16:07:38;23.00;86.90
3380;DHT22;1703;51.964;7.642;2022-08-06T16:10:06;23.30;87.70
3380;DHT22;1703;51.964;7.642;2022-08-06T16:12:33;23.40;88.00
3380;DHT22;1703;51.964;7.642;2022-08-06T16:14:59;23.40;87.90
3380;DHT22;1703;51.964;7.642;2022-08-06T16:17:27;23.40;89.40
3380;DHT22;1703;51.964;7.642;2022-08-06T16:19:54;23.40;90.20
3380;DHT22;1703;51.964;7.642;2022-08-06T16:22:21;23.30;90.40
3380;DHT22;1703;51.964;7.642;2022-08-06T16:24:48;23.30;88.60